• Join FlightAware (Why Join?)
  • Login
  • US Flag 
09:52PM EDT


 

Airport Tracker/Info


-or-


 

Live Flight TrackerFlight Track Log ✈ CES2509 ✈ 21-Aug-2014 ✈ ZHHH / WUH - ZSSS / SHA

Flight Track Log - Related Links

Times and Time Zones

All times are in EDT time to prevent confusion due to time zone crossing. See the CES2509 flight status page for this flight to view local times or setup timezone preferences in your user account.

Time Position Orientation Groundspeed Altitude Reporting Facility
EDT Latitude Longitude Course Direction KTS MPH feet Rate Location/Type
07:02AM 30.8737 115.3109 84° East  Level Estimated
07:03AM 30.8831 115.4335 85° East  Level Estimated
07:04AM 30.8924 115.5562 85° East  Level Estimated
07:05AM 30.9016 115.6789 85° East  Level Estimated
07:06AM 30.9107 115.8016 85° East  Level Estimated
07:07AM 30.9196 115.9244 85° East  Level Estimated
07:08AM 30.9285 116.0472 85° East  Level Estimated
07:09AM 30.9372 116.1700 85° East  Level Estimated
07:10AM 30.9458 116.2928 85° East  Level Estimated
07:11AM 30.9543 116.4156 85° East  Level Estimated
07:12AM 30.9627 116.5385 85° East  Level Estimated
07:13AM 30.9709 116.6614 85° East  Level Estimated
07:14AM 30.9791 116.7843 86° East  Level Estimated
07:15AM 30.9871 116.9072 86° East  Level Estimated
07:16AM 30.9950 117.0301 86° East  Level Estimated
07:17AM 31.0028 117.1531 86° East  Level Estimated
07:18AM 31.0105 117.2761 86° East  Level Estimated
07:19AM 31.0180 117.3991 86° East  Level Estimated
07:20AM 31.0255 117.5221 86° East  Level Estimated
07:21AM 31.0328 117.6451 86° East  Level Estimated
07:22AM 31.0400 117.7682 86° East  Level Estimated
07:23AM 31.0471 117.8913 86° East  Level Estimated
07:24AM 31.0541 118.0144 86° East  Level Estimated
07:25AM 31.0609 118.1375 86° East  Level Estimated
07:26AM 31.0677 118.2607 86° East  Level Estimated
07:27AM 31.0743 118.3838 86° East  Level Estimated
07:28AM 31.0808 118.5070 86° East  Level Estimated
07:29AM 31.0872 118.6301 87° East  Level Estimated
07:30AM 31.0935 118.7533 87° East  Level Estimated
07:31AM 31.0996 118.8766 87° East  Level Estimated
07:32AM 31.1057 118.9998 87° East  Level Estimated
07:33AM 31.1116 119.1230 87° East  Level Estimated
07:34AM 31.1174 119.2463 87° East  Level Estimated
07:35AM 31.1231 119.3696 87° East  Level Estimated
07:36AM 31.1287 119.4929 87° East  Level Estimated
07:37AM 31.1341 119.6162 87° East  Level Estimated
07:38AM 31.1395 119.7395 87° East  Level Estimated
07:39AM 31.1447 119.8629 87° East  Level Estimated
07:40AM 31.1498 119.9862 87° East  Level Estimated
07:41AM 31.1548 120.1096 87° East  Level Estimated
07:42AM 31.1596 120.2329 87° East  Level Estimated
07:43AM 31.1644 120.3563 87° East  Level Estimated
07:44AM 31.1690 120.4797 87° East  Level Estimated
07:45AM 31.1735 120.6031 88° East  Level Estimated
07:46AM 31.1779 120.7266 88° East  Level Estimated
07:47AM 31.1822 120.8500 88° East  Level Estimated
07:48AM 31.1863 120.9734 88° East  Level Estimated
07:49AM 31.1904 121.0969 88° East  Level Estimated
07:50AM 31.1947 121.2320 88° East  Level Estimated
07:51AM 31.1979 121.3363 88° East  Level Estimated
07:52AM 31.1979 121.3363 North  Level Estimated
07:53AM 31.1979 121.3363 North  Level Estimated
07:54AM 31.1979 121.3363 North  Level Estimated
07:55AM 31.1979 121.3363 North  Level Estimated
07:56AM 31.1979 121.3363 North  Level Estimated
07:57AM 31.1979 121.3363 North  Level Estimated
07:58AM 31.1979 121.3363 North  Level Estimated
07:59AM 31.1979 121.3363 North  Level Estimated
08:00AM 31.1979 121.3363 North  Level Estimated
08:01AM 31.1979 121.3363 North  Level Estimated
08:02AM 31.1979 121.3363 North  Level Estimated